sensor_id;sensor_type;location;lat;lon;timestamp;P1;durP1;ratioP1;P2;durP2;ratioP2
32186;SDS011;18686;53.084;8.872;2023-01-06T00:01:24;42.90;;;19.90;;
32186;SDS011;18686;53.084;8.872;2023-01-06T00:03:53;47.78;;;19.70;;
32186;SDS011;18686;53.084;8.872;2023-01-06T00:06:25;42.65;;;19.95;;
32186;SDS011;18686;53.084;8.872;2023-01-06T00:08:55;48.13;;;20.75;;
32186;SDS011;18686;53.084;8.872;2023-01-06T00:11:25;48.92;;;21.25;;
32186;SDS011;18686;53.084;8.872;2023-01-06T00:13:53;48.97;;;21.55;;
32186;SDS011;18686;53.084;8.872;2023-01-06T00:16:22;57.70;;;23.65;;
32186;SDS011;18686;53.084;8.872;2023-01-06T00:18:52;47.47;;;23.63;;
32186;SDS011;18686;53.084;8.872;2023-01-06T00:21:21;53.10;;;23.67;;
32186;SDS011;18686;53.084;8.872;2023-01-06T00:23:51;63.95;;;24.73;;
32186;SDS011;18686;53.084;8.872;2023-01-06T00:26:20;55.42;;;24.95;;
32186;SDS011;18686;53.084;8.872;2023-01-06T00:28:50;57.28;;;26.65;;
32186;SDS011;18686;53.084;8.872;2023-01-06T00:31:20;52.47;;;24.83;;
32186;SDS011;18686;53.084;8.872;2023-01-06T00:33:48;50.85;;;25.13;;
32186;SDS011;18686;53.084;8.872;2023-01-06T00:36:17;52.50;;;24.15;;
32186;SDS011;18686;53.084;8.872;2023-01-06T00:38:47;55.17;;;25.25;;
32186;SDS011;18686;53.084;8.872;2023-01-06T00:41:18;51.90;;;24.48;;
32186;SDS011;18686;53.084;8.872;2023-01-06T00:44:04;54.53;;;26.55;;
32186;SDS011;18686;53.084;8.872;2023-01-06T00:46:33;67.75;;;27.23;;
32186;SDS011;18686;53.084;8.872;2023-01-06T00:49:02;53.38;;;26.65;;
32186;SDS011;18686;53.084;8.872;2023-01-06T00:51:32;56.13;;;26.70;;
32186;SDS011;18686;53.084;8.872;2023-01-06T00:54:01;58.00;;;27.52;;
32186;SDS011;18686;53.084;8.872;2023-01-06T00:56:31;54.05;;;27.30;;
32186;SDS011;18686;53.084;8.872;2023-01-06T00:59:02;56.10;;;28.35;;
32186;SDS011;18686;53.084;8.872;2023-01-06T01:01:31;58.70;;;28.02;;
32186;SDS011;18686;53.084;8.872;2023-01-06T01:04:00;61.20;;;28.65;;
32186;SDS011;18686;53.084;8.872;2023-01-06T01:06:28;61.13;;;29.20;;
32186;SDS011;18686;53.084;8.872;2023-01-06T01:08:57;61.20;;;28.10;;
32186;SDS011;18686;53.084;8.872;2023-01-06T01:11:27;64.85;;;29.27;;
32186;SDS011;18686;53.084;8.872;2023-01-06T01:14:14;54.70;;;28.50;;
32186;SDS011;18686;53.084;8.872;2023-01-06T01:16:44;57.85;;;29.80;;
32186;SDS011;18686;53.084;8.872;2023-01-06T01:19:13;51.22;;;28.45;;
32186;SDS011;18686;53.084;8.872;2023-01-06T01:21:43;53.00;;;30.70;;
32186;SDS011;18686;53.084;8.872;2023-01-06T01:24:12;59.90;;;29.77;;
32186;SDS011;18686;53.084;8.872;2023-01-06T01:26:41;57.03;;;29.25;;
32186;SDS011;18686;53.084;8.872;2023-01-06T01:29:10;58.85;;;30.65;;
32186;SDS011;18686;53.084;8.872;2023-01-06T01:31:40;61.67;;;31.10;;
32186;SDS011;18686;53.084;8.872;2023-01-06T01:34:10;66.10;;;31.70;;
32186;SDS011;18686;53.084;8.872;2023-01-06T01:36:39;60.33;;;31.15;;
32186;SDS011;18686;53.084;8.872;2023-01-06T01:39:08;60.67;;;31.60;;
32186;SDS011;18686;53.084;8.872;2023-01-06T01:41:37;62.92;;;31.65;;
32186;SDS011;18686;53.084;8.872;2023-01-06T01:47:08;61.65;;;32.30;;
32186;SDS011;18686;53.084;8.872;2023-01-06T01:49:38;55.67;;;31.50;;
32186;SDS011;18686;53.084;8.872;2023-01-06T01:52:09;62.90;;;33.20;;
32186;SDS011;18686;53.084;8.872;2023-01-06T01:54:39;63.75;;;33.90;;
32186;SDS011;18686;53.084;8.872;2023-01-06T01:57:10;60.80;;;32.75;;
32186;SDS011;18686;53.084;8.872;2023-01-06T01:59:41;61.33;;;32.33;;
32186;SDS011;18686;53.084;8.872;2023-01-06T02:02:14;71.07;;;34.15;;
32186;SDS011;18686;53.084;8.872;2023-01-06T02:04:46;63.40;;;32.95;;
32186;SDS011;18686;53.084;8.872;2023-01-06T02:07:18;58.30;;;32.53;;
32186;SDS011;18686;53.084;8.872;2023-01-06T02:09:49;75.00;;;34.00;;
32186;SDS011;18686;53.084;8.872;2023-01-06T02:12:23;64.28;;;34.38;;
32186;SDS011;18686;53.084;8.872;2023-01-06T02:14:51;67.28;;;34.55;;
32186;SDS011;18686;53.084;8.872;2023-01-06T02:17:25;55.83;;;34.35;;
32186;SDS011;18686;53.084;8.872;2023-01-06T02:20:32;70.57;;;34.45;;
32186;SDS011;18686;53.084;8.872;2023-01-06T02:32:36;56.40;;;31.90;;
32186;SDS011;18686;53.084;8.872;2023-01-06T02:38:02;62.85;;;31.55;;
32186;SDS011;18686;53.084;8.872;2023-01-06T02:40:42;54.35;;;30.45;;
32186;SDS011;18686;53.084;8.872;2023-01-06T02:43:24;53.47;;;30.30;;
32186;SDS011;18686;53.084;8.872;2023-01-06T02:46:01;51.63;;;28.30;;
32186;SDS011;18686;53.084;8.872;2023-01-06T02:48:41;48.13;;;28.95;;
32186;SDS011;18686;53.084;8.872;2023-01-06T02:51:17;50.40;;;28.60;;
32186;SDS011;18686;53.084;8.872;2023-01-06T02:53:57;41.83;;;24.67;;
32186;SDS011;18686;53.084;8.872;2023-01-06T02:56:36;35.77;;;23.43;;
32186;SDS011;18686;53.084;8.872;2023-01-06T02:59:10;38.15;;;23.42;;
32186;SDS011;18686;53.084;8.872;2023-01-06T03:01:46;36.83;;;22.75;;
32186;SDS011;18686;53.084;8.872;2023-01-06T03:04:20;32.13;;;20.63;;
32186;SDS011;18686;53.084;8.872;2023-01-06T03:06:52;34.72;;;19.80;;
32186;SDS011;18686;53.084;8.872;2023-01-06T03:09:26;33.63;;;20.73;;
32186;SDS011;18686;53.084;8.872;2023-01-06T03:11:56;31.02;;;21.02;;
32186;SDS011;18686;53.084;8.872;2023-01-06T03:14:29;31.80;;;19.55;;
32186;SDS011;18686;53.084;8.872;2023-01-06T03:17:01;30.02;;;19.98;;
32186;SDS011;18686;53.084;8.872;2023-01-06T03:19:31;31.77;;;20.10;;
32186;SDS011;18686;53.084;8.872;2023-01-06T03:22:02;35.53;;;19.52;;
32186;SDS011;18686;53.084;8.872;2023-01-06T03:24:31;30.27;;;21.02;;
32186;SDS011;18686;53.084;8.872;2023-01-06T03:27:00;29.80;;;19.48;;
32186;SDS011;18686;53.084;8.872;2023-01-06T03:29:30;34.15;;;20.08;;
32186;SDS011;18686;53.084;8.872;2023-01-06T03:32:00;32.53;;;20.65;;
32186;SDS011;18686;53.084;8.872;2023-01-06T03:34:36;33.17;;;21.02;;
32186;SDS011;18686;53.084;8.872;2023-01-06T03:37:25;32.85;;;19.65;;
32186;SDS011;18686;53.084;8.872;2023-01-06T03:40:06;32.25;;;19.77;;
32186;SDS011;18686;53.084;8.872;2023-01-06T03:42:40;31.55;;;19.67;;
32186;SDS011;18686;53.084;8.872;2023-01-06T03:45:36;23.95;;;17.90;;
32186;SDS011;18686;53.084;8.872;2023-01-06T03:48:10;27.58;;;18.60;;
32186;SDS011;18686;53.084;8.872;2023-01-06T03:50:48;25.45;;;16.45;;
32186;SDS011;18686;53.084;8.872;2023-01-06T03:53:22;22.55;;;16.40;;
32186;SDS011;18686;53.084;8.872;2023-01-06T03:55:57;25.70;;;15.75;;
32186;SDS011;18686;53.084;8.872;2023-01-06T03:58:33;21.05;;;15.05;;
32186;SDS011;18686;53.084;8.872;2023-01-06T04:01:03;21.30;;;14.98;;
32186;SDS011;18686;53.084;8.872;2023-01-06T04:03:33;18.80;;;13.55;;
32186;SDS011;18686;53.084;8.872;2023-01-06T04:06:03;20.92;;;13.75;;
32186;SDS011;18686;53.084;8.872;2023-01-06T04:08:32;18.75;;;13.20;;
32186;SDS011;18686;53.084;8.872;2023-01-06T04:11:01;16.75;;;12.88;;
32186;SDS011;18686;53.084;8.872;2023-01-06T04:13:30;18.75;;;12.18;;
32186;SDS011;18686;53.084;8.872;2023-01-06T04:15:58;20.35;;;11.85;;
32186;SDS011;18686;53.084;8.872;2023-01-06T04:18:26;16.73;;;11.70;;
32186;SDS011;18686;53.084;8.872;2023-01-06T04:20:54;17.42;;;11.57;;
32186;SDS011;18686;53.084;8.872;2023-01-06T04:23:27;19.80;;;11.35;;
32186;SDS011;18686;53.084;8.872;2023-01-06T04:26:00;15.70;;;11.07;;
32186;SDS011;18686;53.084;8.872;2023-01-06T04:28:34;17.58;;;10.68;;
32186;SDS011;18686;53.084;8.872;2023-01-06T04:31:02;13.05;;;10.65;;
32186;SDS011;18686;53.084;8.872;2023-01-06T04:33:33;15.77;;;10.55;;
32186;SDS011;18686;53.084;8.872;2023-01-06T04:36:04;14.15;;;11.05;;
32186;SDS011;18686;53.084;8.872;2023-01-06T04:38:35;17.80;;;11.98;;
32186;SDS011;18686;53.084;8.872;2023-01-06T04:41:03;15.40;;;11.50;;
32186;SDS011;18686;53.084;8.872;2023-01-06T04:43:32;17.52;;;13.15;;
32186;SDS011;18686;53.084;8.872;2023-01-06T04:46:00;18.67;;;12.63;;
32186;SDS011;18686;53.084;8.872;2023-01-06T04:48:28;15.43;;;12.63;;
32186;SDS011;18686;53.084;8.872;2023-01-06T04:50:59;14.85;;;12.95;;
32186;SDS011;18686;53.084;8.872;2023-01-06T04:53:28;19.42;;;14.50;;
32186;SDS011;18686;53.084;8.872;2023-01-06T04:56:00;17.58;;;13.38;;
32186;SDS011;18686;53.084;8.872;2023-01-06T04:58:29;16.48;;;14.77;;
32186;SDS011;18686;53.084;8.872;2023-01-06T05:00:59;19.20;;;15.15;;
32186;SDS011;18686;53.084;8.872;2023-01-06T05:03:27;20.45;;;15.80;;
32186;SDS011;18686;53.084;8.872;2023-01-06T05:05:58;18.52;;;15.88;;
32186;SDS011;18686;53.084;8.872;2023-01-06T05:08:28;18.50;;;16.58;;
32186;SDS011;18686;53.084;8.872;2023-01-06T05:11:01;19.58;;;17.17;;
32186;SDS011;18686;53.084;8.872;2023-01-06T05:13:30;18.58;;;16.58;;
32186;SDS011;18686;53.084;8.872;2023-01-06T05:15:59;18.73;;;16.85;;
32186;SDS011;18686;53.084;8.872;2023-01-06T05:18:27;21.05;;;17.55;;
32186;SDS011;18686;53.084;8.872;2023-01-06T05:20:56;18.30;;;16.40;;
32186;SDS011;18686;53.084;8.872;2023-01-06T05:23:24;24.48;;;17.08;;
32186;SDS011;18686;53.084;8.872;2023-01-06T05:25:52;18.60;;;16.48;;
32186;SDS011;18686;53.084;8.872;2023-01-06T05:28:22;19.35;;;16.30;;
32186;SDS011;18686;53.084;8.872;2023-01-06T05:30:50;17.25;;;15.13;;
32186;SDS011;18686;53.084;8.872;2023-01-06T05:33:19;22.45;;;15.65;;
32186;SDS011;18686;53.084;8.872;2023-01-06T05:35:47;17.25;;;15.07;;
32186;SDS011;18686;53.084;8.872;2023-01-06T05:38:15;17.02;;;15.23;;
32186;SDS011;18686;53.084;8.872;2023-01-06T05:40:43;16.00;;;14.35;;
32186;SDS011;18686;53.084;8.872;2023-01-06T05:43:12;16.77;;;14.18;;
32186;SDS011;18686;53.084;8.872;2023-01-06T05:45:41;15.65;;;14.05;;
32186;SDS011;18686;53.084;8.872;2023-01-06T05:48:10;16.02;;;13.20;;
32186;SDS011;18686;53.084;8.872;2023-01-06T05:50:38;16.42;;;13.60;;
32186;SDS011;18686;53.084;8.872;2023-01-06T05:53:06;15.93;;;12.82;;
32186;SDS011;18686;53.084;8.872;2023-01-06T05:55:35;16.55;;;13.15;;
32186;SDS011;18686;53.084;8.872;2023-01-06T05:58:03;14.63;;;11.90;;
32186;SDS011;18686;53.084;8.872;2023-01-06T06:00:31;14.05;;;11.75;;
32186;SDS011;18686;53.084;8.872;2023-01-06T06:03:01;13.18;;;11.75;;
32186;SDS011;18686;53.084;8.872;2023-01-06T06:05:29;20.48;;;13.23;;
32186;SDS011;18686;53.084;8.872;2023-01-06T06:07:57;13.05;;;10.00;;
32186;SDS011;18686;53.084;8.872;2023-01-06T06:10:25;13.57;;;10.57;;
32186;SDS011;18686;53.084;8.872;2023-01-06T06:12:54;12.63;;;10.07;;
32186;SDS011;18686;53.084;8.872;2023-01-06T06:15:22;14.07;;;8.98;;
32186;SDS011;18686;53.084;8.872;2023-01-06T06:17:50;11.80;;;9.25;;
32186;SDS011;18686;53.084;8.872;2023-01-06T06:20:20;12.32;;;8.82;;
32186;SDS011;18686;53.084;8.872;2023-01-06T06:22:48;12.43;;;7.68;;
32186;SDS011;18686;53.084;8.872;2023-01-06T06:25:16;9.05;;;8.13;;
32186;SDS011;18686;53.084;8.872;2023-01-06T06:27:44;8.75;;;7.53;;
32186;SDS011;18686;53.084;8.872;2023-01-06T06:30:13;11.00;;;7.40;;
32186;SDS011;18686;53.084;8.872;2023-01-06T06:32:42;10.70;;;7.75;;
32186;SDS011;18686;53.084;8.872;2023-01-06T06:35:10;10.45;;;7.22;;
32186;SDS011;18686;53.084;8.872;2023-01-06T06:37:40;9.27;;;6.68;;
32186;SDS011;18686;53.084;8.872;2023-01-06T06:40:08;12.98;;;6.90;;
32186;SDS011;18686;53.084;8.872;2023-01-06T06:42:38;8.85;;;6.63;;
32186;SDS011;18686;53.084;8.872;2023-01-06T06:45:06;6.65;;;5.60;;
32186;SDS011;18686;53.084;8.872;2023-01-06T06:47:35;8.27;;;5.90;;
32186;SDS011;18686;53.084;8.872;2023-01-06T06:50:03;8.98;;;5.35;;
32186;SDS011;18686;53.084;8.872;2023-01-06T06:52:32;7.22;;;5.60;;
32186;SDS011;18686;53.084;8.872;2023-01-06T06:55:01;7.82;;;5.18;;
32186;SDS011;18686;53.084;8.872;2023-01-06T06:57:30;7.15;;;5.03;;
32186;SDS011;18686;53.084;8.872;2023-01-06T06:59:58;6.43;;;5.00;;
32186;SDS011;18686;53.084;8.872;2023-01-06T07:02:26;7.75;;;4.47;;
32186;SDS011;18686;53.084;8.872;2023-01-06T07:04:54;7.20;;;4.63;;
32186;SDS011;18686;53.084;8.872;2023-01-06T07:07:23;5.07;;;4.22;;
32186;SDS011;18686;53.084;8.872;2023-01-06T07:09:51;8.18;;;4.43;;
32186;SDS011;18686;53.084;8.872;2023-01-06T07:12:21;5.30;;;4.20;;
32186;SDS011;18686;53.084;8.872;2023-01-06T07:14:49;7.15;;;3.60;;
32186;SDS011;18686;53.084;8.872;2023-01-06T07:17:17;4.97;;;3.25;;
32186;SDS011;18686;53.084;8.872;2023-01-06T07:19:45;4.45;;;2.97;;
32186;SDS011;18686;53.084;8.872;2023-01-06T07:22:14;4.22;;;2.95;;
32186;SDS011;18686;53.084;8.872;2023-01-06T07:24:42;13.27;;;3.30;;
32186;SDS011;18686;53.084;8.872;2023-01-06T07:27:10;5.97;;;3.20;;
32186;SDS011;18686;53.084;8.872;2023-01-06T07:29:40;6.20;;;2.75;;
32186;SDS011;18686;53.084;8.872;2023-01-06T07:32:08;8.45;;;2.67;;
32186;SDS011;18686;53.084;8.872;2023-01-06T07:34:36;6.85;;;2.53;;
32186;SDS011;18686;53.084;8.872;2023-01-06T07:37:05;6.05;;;2.90;;
32186;SDS011;18686;53.084;8.872;2023-01-06T07:39:33;6.30;;;2.30;;
32186;SDS011;18686;53.084;8.872;2023-01-06T07:42:01;6.97;;;2.72;;
32186;SDS011;18686;53.084;8.872;2023-01-06T07:44:29;5.32;;;2.15;;
32186;SDS011;18686;53.084;8.872;2023-01-06T07:46:59;5.80;;;2.03;;
32186;SDS011;18686;53.084;8.872;2023-01-06T07:49:28;3.03;;;1.80;;
32186;SDS011;18686;53.084;8.872;2023-01-06T07:51:56;5.15;;;1.92;;
32186;SDS011;18686;53.084;8.872;2023-01-06T07:54:25;3.60;;;1.80;;
32186;SDS011;18686;53.084;8.872;2023-01-06T07:56:53;3.22;;;1.92;;
32186;SDS011;18686;53.084;8.872;2023-01-06T07:59:22;3.88;;;1.77;;
32186;SDS011;18686;53.084;8.872;2023-01-06T08:01:50;6.85;;;2.05;;
32186;SDS011;18686;53.084;8.872;2023-01-06T08:04:20;5.35;;;2.17;;
32186;SDS011;18686;53.084;8.872;2023-01-06T08:06:48;8.05;;;2.40;;
32186;SDS011;18686;53.084;8.872;2023-01-06T08:09:16;5.65;;;2.40;;
32186;SDS011;18686;53.084;8.872;2023-01-06T08:11:45;6.75;;;2.75;;
32186;SDS011;18686;53.084;8.872;2023-01-06T08:14:13;4.20;;;2.58;;
32186;SDS011;18686;53.084;8.872;2023-01-06T08:16:41;3.78;;;2.10;;
32186;SDS011;18686;53.084;8.872;2023-01-06T08:19:10;5.93;;;2.70;;
32186;SDS011;18686;53.084;8.872;2023-01-06T08:21:39;5.38;;;2.55;;
32186;SDS011;18686;53.084;8.872;2023-01-06T08:24:08;6.97;;;2.92;;
32186;SDS011;18686;53.084;8.872;2023-01-06T08:26:36;8.50;;;2.80;;
32186;SDS011;18686;53.084;8.872;2023-01-06T08:29:04;5.15;;;2.90;;
32186;SDS011;18686;53.084;8.872;2023-01-06T08:31:33;5.55;;;2.75;;
32186;SDS011;18686;53.084;8.872;2023-01-06T08:34:02;7.70;;;3.03;;
32186;SDS011;18686;53.084;8.872;2023-01-06T08:36:31;7.47;;;2.88;;
32186;SDS011;18686;53.084;8.872;2023-01-06T08:39:01;8.35;;;2.90;;
32186;SDS011;18686;53.084;8.872;2023-01-06T08:41:29;10.55;;;3.72;;
32186;SDS011;18686;53.084;8.872;2023-01-06T08:43:57;7.97;;;3.22;;
32186;SDS011;18686;53.084;8.872;2023-01-06T08:46:26;8.57;;;3.47;;
32186;SDS011;18686;53.084;8.872;2023-01-06T08:48:54;6.10;;;3.40;;
32186;SDS011;18686;53.084;8.872;2023-01-06T08:51:23;6.47;;;4.22;;
32186;SDS011;18686;53.084;8.872;2023-01-06T08:53:52;8.40;;;4.90;;
32186;SDS011;18686;53.084;8.872;2023-01-06T08:56:23;10.27;;;5.30;;
32186;SDS011;18686;53.084;8.872;2023-01-06T08:58:54;7.93;;;5.15;;
32186;SDS011;18686;53.084;8.872;2023-01-06T09:01:24;11.50;;;5.13;;
32186;SDS011;18686;53.084;8.872;2023-01-06T09:03:54;7.57;;;5.70;;
32186;SDS011;18686;53.084;8.872;2023-01-06T09:06:22;7.78;;;5.78;;
32186;SDS011;18686;53.084;8.872;2023-01-06T09:08:50;6.10;;;5.32;;
32186;SDS011;18686;53.084;8.872;2023-01-06T09:11:19;8.38;;;5.43;;
32186;SDS011;18686;53.084;8.872;2023-01-06T09:13:49;9.10;;;5.82;;
32186;SDS011;18686;53.084;8.872;2023-01-06T09:16:18;6.85;;;6.13;;
32186;SDS011;18686;53.084;8.872;2023-01-06T09:18:46;12.30;;;5.85;;
32186;SDS011;18686;53.084;8.872;2023-01-06T09:21:16;10.65;;;6.25;;
32186;SDS011;18686;53.084;8.872;2023-01-06T09:23:46;9.73;;;6.18;;
32186;SDS011;18686;53.084;8.872;2023-01-06T09:26:15;11.60;;;5.93;;
32186;SDS011;18686;53.084;8.872;2023-01-06T09:28:44;8.93;;;5.93;;
32186;SDS011;18686;53.084;8.872;2023-01-06T09:31:14;6.78;;;5.47;;
32186;SDS011;18686;53.084;8.872;2023-01-06T09:33:43;13.15;;;5.80;;
32186;SDS011;18686;53.084;8.872;2023-01-06T09:36:12;9.02;;;4.68;;
32186;SDS011;18686;53.084;8.872;2023-01-06T09:38:40;6.95;;;4.35;;
32186;SDS011;18686;53.084;8.872;2023-01-06T09:41:18;7.20;;;4.25;;
32186;SDS011;18686;53.084;8.872;2023-01-06T09:44:11;6.72;;;4.30;;
32186;SDS011;18686;53.084;8.872;2023-01-06T09:46:44;6.43;;;4.07;;
32186;SDS011;18686;53.084;8.872;2023-01-06T09:49:19;6.57;;;3.85;;
32186;SDS011;18686;53.084;8.872;2023-01-06T09:51:54;4.53;;;3.90;;
32186;SDS011;18686;53.084;8.872;2023-01-06T09:54:26;5.50;;;3.85;;
32186;SDS011;18686;53.084;8.872;2023-01-06T09:59:31;4.20;;;3.80;;
32186;SDS011;18686;53.084;8.872;2023-01-06T10:02:07;7.43;;;3.90;;
32186;SDS011;18686;53.084;8.872;2023-01-06T10:04:41;5.40;;;3.95;;
32186;SDS011;18686;53.084;8.872;2023-01-06T10:07:11;5.07;;;3.50;;
32186;SDS011;18686;53.084;8.872;2023-01-06T10:09:48;3.88;;;3.47;;
32186;SDS011;18686;53.084;8.872;2023-01-06T10:12:30;4.28;;;3.50;;
32186;SDS011;18686;53.084;8.872;2023-01-06T10:15:16;4.80;;;3.42;;
32186;SDS011;18686;53.084;8.872;2023-01-06T10:17:56;3.85;;;3.42;;
32186;SDS011;18686;53.084;8.872;2023-01-06T10:20:38;5.30;;;3.97;;
32186;SDS011;18686;53.084;8.872;2023-01-06T10:23:31;4.35;;;3.95;;
32186;SDS011;18686;53.084;8.872;2023-01-06T10:26:12;4.55;;;3.10;;
32186;SDS011;18686;53.084;8.872;2023-01-06T10:28:44;2.42;;;2.22;;
32186;SDS011;18686;53.084;8.872;2023-01-06T10:31:19;2.40;;;2.17;;
32186;SDS011;18686;53.084;8.872;2023-01-06T10:33:53;2.10;;;1.90;;
32186;SDS011;18686;53.084;8.872;2023-01-06T10:36:24;3.35;;;2.50;;
32186;SDS011;18686;53.084;8.872;2023-01-06T10:38:58;4.75;;;1.73;;
32186;SDS011;18686;53.084;8.872;2023-01-06T10:44:06;1.77;;;1.30;;
32186;SDS011;18686;53.084;8.872;2023-01-06T10:46:37;3.13;;;1.30;;
32186;SDS011;18686;53.084;8.872;2023-01-06T10:49:11;2.35;;;0.77;;
32186;SDS011;18686;53.084;8.872;2023-01-06T10:51:42;1.23;;;0.63;;
32186;SDS011;18686;53.084;8.872;2023-01-06T10:54:18;0.95;;;0.50;;
32186;SDS011;18686;53.084;8.872;2023-01-06T10:56:51;3.40;;;0.75;;
32186;SDS011;18686;53.084;8.872;2023-01-06T10:59:22;3.83;;;0.57;;
32186;SDS011;18686;53.084;8.872;2023-01-06T11:01:51;2.28;;;0.43;;
32186;SDS011;18686;53.084;8.872;2023-01-06T11:04:23;1.83;;;0.60;;
32186;SDS011;18686;53.084;8.872;2023-01-06T11:06:53;1.35;;;0.50;;
32186;SDS011;18686;53.084;8.872;2023-01-06T11:09:26;1.77;;;0.60;;
32186;SDS011;18686;53.084;8.872;2023-01-06T11:11:58;2.60;;;0.90;;
32186;SDS011;18686;53.084;8.872;2023-01-06T11:14:28;1.33;;;0.60;;
32186;SDS011;18686;53.084;8.872;2023-01-06T11:16:59;2.38;;;0.88;;
32186;SDS011;18686;53.084;8.872;2023-01-06T11:19:36;1.80;;;0.60;;
32186;SDS011;18686;53.084;8.872;2023-01-06T11:24:58;1.80;;;0.60;;
32186;SDS011;18686;53.084;8.872;2023-01-06T11:27:26;2.67;;;0.95;;
32186;SDS011;18686;53.084;8.872;2023-01-06T11:29:54;1.73;;;0.55;;
32186;SDS011;18686;53.084;8.872;2023-01-06T11:32:23;2.75;;;0.93;;
32186;SDS011;18686;53.084;8.872;2023-01-06T11:34:57;3.22;;;0.68;;
32186;SDS011;18686;53.084;8.872;2023-01-06T11:37:30;1.83;;;0.70;;
32186;SDS011;18686;53.084;8.872;2023-01-06T11:40:00;3.22;;;0.80;;
32186;SDS011;18686;53.084;8.872;2023-01-06T11:42:37;2.53;;;0.80;;
32186;SDS011;18686;53.084;8.872;2023-01-06T11:45:07;2.58;;;0.75;;
32186;SDS011;18686;53.084;8.872;2023-01-06T11:47:55;3.33;;;1.00;;
32186;SDS011;18686;53.084;8.872;2023-01-06T11:50:25;1.85;;;0.60;;
32186;SDS011;18686;53.084;8.872;2023-01-06T11:52:57;1.98;;;0.45;;
32186;SDS011;18686;53.084;8.872;2023-01-06T11:55:26;2.78;;;0.80;;
32186;SDS011;18686;53.084;8.872;2023-01-06T11:57:56;7.15;;;1.05;;
32186;SDS011;18686;53.084;8.872;2023-01-06T12:00:33;3.53;;;0.93;;
32186;SDS011;18686;53.084;8.872;2023-01-06T12:03:13;2.42;;;1.15;;
32186;SDS011;18686;53.084;8.872;2023-01-06T12:05:53;5.20;;;1.58;;
32186;SDS011;18686;53.084;8.872;2023-01-06T12:08:27;3.33;;;0.90;;
32186;SDS011;18686;53.084;8.872;2023-01-06T12:11:02;2.47;;;0.60;;
32186;SDS011;18686;53.084;8.872;2023-01-06T12:13:37;3.33;;;1.10;;
32186;SDS011;18686;53.084;8.872;2023-01-06T12:16:17;2.47;;;1.00;;
32186;SDS011;18686;53.084;8.872;2023-01-06T12:18:50;1.73;;;0.80;;
32186;SDS011;18686;53.084;8.872;2023-01-06T12:21:23;3.10;;;0.85;;
32186;SDS011;18686;53.084;8.872;2023-01-06T12:23:55;4.75;;;1.20;;
32186;SDS011;18686;53.084;8.872;2023-01-06T12:26:27;3.22;;;0.90;;
32186;SDS011;18686;53.084;8.872;2023-01-06T12:28:57;2.95;;;0.90;;
32186;SDS011;18686;53.084;8.872;2023-01-06T12:31:27;2.85;;;0.70;;
32186;SDS011;18686;53.084;8.872;2023-01-06T12:34:09;2.70;;;0.95;;
32186;SDS011;18686;53.084;8.872;2023-01-06T12:36:46;3.20;;;1.00;;
32186;SDS011;18686;53.084;8.872;2023-01-06T12:39:21;3.55;;;0.90;;
32186;SDS011;18686;53.084;8.872;2023-01-06T12:41:55;3.33;;;1.02;;
32186;SDS011;18686;53.084;8.872;2023-01-06T12:44:33;4.03;;;2.03;;
32186;SDS011;18686;53.084;8.872;2023-01-06T12:47:09;2.75;;;1.33;;
32186;SDS011;18686;53.084;8.872;2023-01-06T12:49:45;3.38;;;0.80;;
32186;SDS011;18686;53.084;8.872;2023-01-06T12:52:21;3.75;;;0.85;;
32186;SDS011;18686;53.084;8.872;2023-01-06T12:54:55;5.00;;;1.10;;
32186;SDS011;18686;53.084;8.872;2023-01-06T12:57:34;4.18;;;1.10;;
32186;SDS011;18686;53.084;8.872;2023-01-06T13:00:17;3.88;;;1.02;;
32186;SDS011;18686;53.084;8.872;2023-01-06T13:03:12;2.55;;;1.00;;
32186;SDS011;18686;53.084;8.872;2023-01-06T13:08:52;4.10;;;1.25;;
32186;SDS011;18686;53.084;8.872;2023-01-06T13:11:32;3.28;;;0.77;;
32186;SDS011;18686;53.084;8.872;2023-01-06T13:14:13;3.72;;;1.00;;
32186;SDS011;18686;53.084;8.872;2023-01-06T13:16:49;6.35;;;0.98;;
32186;SDS011;18686;53.084;8.872;2023-01-06T13:19:28;4.63;;;1.13;;
32186;SDS011;18686;53.084;8.872;2023-01-06T13:22:07;5.93;;;2.40;;
32186;SDS011;18686;53.084;8.872;2023-01-06T13:24:43;6.93;;;1.33;;
32186;SDS011;18686;53.084;8.872;2023-01-06T13:27:29;3.45;;;1.27;;
32186;SDS011;18686;53.084;8.872;2023-01-06T13:30:33;6.80;;;1.30;;
32186;SDS011;18686;53.084;8.872;2023-01-06T13:36:15;4.55;;;1.05;;
32186;SDS011;18686;53.084;8.872;2023-01-06T13:39:02;6.03;;;1.20;;
32186;SDS011;18686;53.084;8.872;2023-01-06T13:41:37;6.00;;;1.40;;
32186;SDS011;18686;53.084;8.872;2023-01-06T13:44:11;6.93;;;1.40;;
32186;SDS011;18686;53.084;8.872;2023-01-06T13:46:42;3.97;;;1.35;;
32186;SDS011;18686;53.084;8.872;2023-01-06T13:49:12;3.08;;;1.20;;
32186;SDS011;18686;53.084;8.872;2023-01-06T13:51:41;7.15;;;1.17;;
32186;SDS011;18686;53.084;8.872;2023-01-06T13:57:29;5.88;;;1.20;;
32186;SDS011;18686;53.084;8.872;2023-01-06T14:00:18;7.47;;;1.40;;
32186;SDS011;18686;53.084;8.872;2023-01-06T14:03:00;7.88;;;1.75;;
32186;SDS011;18686;53.084;8.872;2023-01-06T14:05:53;4.72;;;1.33;;
32186;SDS011;18686;53.084;8.872;2023-01-06T14:08:32;5.22;;;1.42;;
32186;SDS011;18686;53.084;8.872;2023-01-06T14:13:57;5.28;;;1.38;;
32186;SDS011;18686;53.084;8.872;2023-01-06T14:16:39;8.85;;;2.05;;
32186;SDS011;18686;53.084;8.872;2023-01-06T14:19:14;7.72;;;1.83;;
32186;SDS011;18686;53.084;8.872;2023-01-06T14:24:19;10.27;;;1.83;;
32186;SDS011;18686;53.084;8.872;2023-01-06T14:26:54;5.15;;;1.40;;
32186;SDS011;18686;53.084;8.872;2023-01-06T14:32:59;9.68;;;1.50;;
32186;SDS011;18686;53.084;8.872;2023-01-06T14:35:30;6.30;;;1.50;;
32186;SDS011;18686;53.084;8.872;2023-01-06T14:38:04;5.53;;;1.20;;
32186;SDS011;18686;53.084;8.872;2023-01-06T14:40:39;9.93;;;2.03;;
32186;SDS011;18686;53.084;8.872;2023-01-06T14:43:25;6.80;;;1.67;;
32186;SDS011;18686;53.084;8.872;2023-01-06T14:46:06;9.10;;;1.43;;
32186;SDS011;18686;53.084;8.872;2023-01-06T14:48:41;8.45;;;1.70;;
32186;SDS011;18686;53.084;8.872;2023-01-06T14:51:15;10.90;;;1.70;;
32186;SDS011;18686;53.084;8.872;2023-01-06T14:53:50;10.85;;;1.88;;
32186;SDS011;18686;53.084;8.872;2023-01-06T14:56:31;9.93;;;1.92;;
32186;SDS011;18686;53.084;8.872;2023-01-06T14:59:01;11.00;;;2.15;;
32186;SDS011;18686;53.084;8.872;2023-01-06T15:01:32;11.15;;;1.77;;
32186;SDS011;18686;53.084;8.872;2023-01-06T15:04:02;8.68;;;1.67;;
32186;SDS011;18686;53.084;8.872;2023-01-06T15:06:31;8.27;;;1.52;;
32186;SDS011;18686;53.084;8.872;2023-01-06T15:09:09;9.65;;;1.90;;
32186;SDS011;18686;53.084;8.872;2023-01-06T15:11:39;10.73;;;2.45;;
32186;SDS011;18686;53.084;8.872;2023-01-06T15:14:24;12.43;;;1.88;;
32186;SDS011;18686;53.084;8.872;2023-01-06T15:17:00;11.68;;;2.30;;
32186;SDS011;18686;53.084;8.872;2023-01-06T15:19:30;5.90;;;1.50;;
32186;SDS011;18686;53.084;8.872;2023-01-06T15:21:59;10.23;;;1.95;;
32186;SDS011;18686;53.084;8.872;2023-01-06T15:24:32;10.85;;;1.90;;
32186;SDS011;18686;53.084;8.872;2023-01-06T15:27:04;9.93;;;2.15;;
32186;SDS011;18686;53.084;8.872;2023-01-06T15:29:33;11.27;;;1.77;;
32186;SDS011;18686;53.084;8.872;2023-01-06T15:32:04;12.35;;;2.85;;
32186;SDS011;18686;53.084;8.872;2023-01-06T15:34:38;13.63;;;2.40;;
32186;SDS011;18686;53.084;8.872;2023-01-06T15:39:43;6.75;;;1.52;;
32186;SDS011;18686;53.084;8.872;2023-01-06T15:42:12;8.68;;;1.98;;
32186;SDS011;18686;53.084;8.872;2023-01-06T15:44:52;12.10;;;1.90;;
32186;SDS011;18686;53.084;8.872;2023-01-06T15:47:25;11.45;;;2.38;;
32186;SDS011;18686;53.084;8.872;2023-01-06T15:49:58;12.40;;;2.65;;